sensor_id;sensor_type;location;lat;lon;timestamp;P1;durP1;ratioP1;P2;durP2;ratioP2
15673;SDS011;7937;48.090;16.212;2022-11-15T00:02:17;48.90;;;26.73;;
15673;SDS011;7937;48.090;16.212;2022-11-15T00:05:38;55.33;;;28.90;;
15673;SDS011;7937;48.090;16.212;2022-11-15T00:08:59;55.63;;;29.70;;
15673;SDS011;7937;48.090;16.212;2022-11-15T00:12:20;49.03;;;25.80;;
15673;SDS011;7937;48.090;16.212;2022-11-15T00:15:41;47.60;;;26.83;;
15673;SDS011;7937;48.090;16.212;2022-11-15T00:19:02;50.20;;;28.13;;
15673;SDS011;7937;48.090;16.212;2022-11-15T00:22:22;47.33;;;25.47;;
15673;SDS011;7937;48.090;16.212;2022-11-15T00:25:43;43.93;;;24.93;;
15673;SDS011;7937;48.090;16.212;2022-11-15T00:29:04;44.23;;;25.87;;
15673;SDS011;7937;48.090;16.212;2022-11-15T00:32:25;43.70;;;24.77;;
15673;SDS011;7937;48.090;16.212;2022-11-15T00:35:46;45.67;;;24.47;;
15673;SDS011;7937;48.090;16.212;2022-11-15T00:39:07;40.97;;;24.90;;
15673;SDS011;7937;48.090;16.212;2022-11-15T00:42:27;47.83;;;25.60;;
15673;SDS011;7937;48.090;16.212;2022-11-15T00:45:48;41.53;;;23.17;;
15673;SDS011;7937;48.090;16.212;2022-11-15T00:49:08;45.70;;;25.10;;
15673;SDS011;7937;48.090;16.212;2022-11-15T00:52:29;41.70;;;23.70;;
15673;SDS011;7937;48.090;16.212;2022-11-15T00:55:52;42.53;;;24.77;;
15673;SDS011;7937;48.090;16.212;2022-11-15T00:59:15;49.63;;;26.03;;
15673;SDS011;7937;48.090;16.212;2022-11-15T01:02:35;52.67;;;27.23;;
15673;SDS011;7937;48.090;16.212;2022-11-15T01:05:58;41.00;;;23.43;;
15673;SDS011;7937;48.090;16.212;2022-11-15T01:09:19;45.13;;;24.93;;
15673;SDS011;7937;48.090;16.212;2022-11-15T01:12:40;47.87;;;26.00;;
15673;SDS011;7937;48.090;16.212;2022-11-15T01:16:11;53.77;;;27.37;;
15673;SDS011;7937;48.090;16.212;2022-11-15T01:19:33;58.23;;;28.07;;
15673;SDS011;7937;48.090;16.212;2022-11-15T01:22:54;53.40;;;28.07;;
15673;SDS011;7937;48.090;16.212;2022-11-15T01:26:15;69.03;;;30.00;;
15673;SDS011;7937;48.090;16.212;2022-11-15T01:29:36;71.63;;;31.43;;
15673;SDS011;7937;48.090;16.212;2022-11-15T01:32:56;72.43;;;33.00;;
15673;SDS011;7937;48.090;16.212;2022-11-15T01:36:18;66.40;;;31.50;;
15673;SDS011;7937;48.090;16.212;2022-11-15T01:39:41;58.87;;;30.57;;
15673;SDS011;7937;48.090;16.212;2022-11-15T01:43:18;65.73;;;31.20;;
15673;SDS011;7937;48.090;16.212;2022-11-15T01:46:41;59.27;;;29.57;;
15673;SDS011;7937;48.090;16.212;2022-11-15T01:50:08;50.17;;;28.87;;
15673;SDS011;7937;48.090;16.212;2022-11-15T01:53:32;53.80;;;28.23;;
15673;SDS011;7937;48.090;16.212;2022-11-15T01:56:58;58.63;;;30.10;;
15673;SDS011;7937;48.090;16.212;2022-11-15T02:00:22;51.30;;;27.10;;
15673;SDS011;7937;48.090;16.212;2022-11-15T02:03:52;59.70;;;30.63;;
15673;SDS011;7937;48.090;16.212;2022-11-15T02:07:17;50.90;;;29.20;;
15673;SDS011;7937;48.090;16.212;2022-11-15T02:10:40;58.67;;;30.03;;
15673;SDS011;7937;48.090;16.212;2022-11-15T02:14:00;51.53;;;28.40;;
15673;SDS011;7937;48.090;16.212;2022-11-15T02:21:08;80.13;;;33.10;;
15673;SDS011;7937;48.090;16.212;2022-11-15T02:32:07;87.33;;;33.10;;
15673;SDS011;7937;48.090;16.212;2022-11-15T02:43:11;101.33;;;35.30;;
15673;SDS011;7937;48.090;16.212;2022-11-15T02:46:55;77.83;;;33.00;;
15673;SDS011;7937;48.090;16.212;2022-11-15T02:50:34;60.83;;;29.20;;
15673;SDS011;7937;48.090;16.212;2022-11-15T02:53:55;92.73;;;34.47;;
15673;SDS011;7937;48.090;16.212;2022-11-15T02:57:16;58.83;;;28.80;;
15673;SDS011;7937;48.090;16.212;2022-11-15T03:00:43;87.77;;;32.20;;
15673;SDS011;7937;48.090;16.212;2022-11-15T03:11:56;65.30;;;29.73;;
15673;SDS011;7937;48.090;16.212;2022-11-15T03:15:23;60.70;;;31.03;;
15673;SDS011;7937;48.090;16.212;2022-11-15T03:18:51;59.03;;;29.00;;
15673;SDS011;7937;48.090;16.212;2022-11-15T03:22:18;66.83;;;29.23;;
15673;SDS011;7937;48.090;16.212;2022-11-15T03:25:42;66.83;;;29.53;;
15673;SDS011;7937;48.090;16.212;2022-11-15T03:29:13;62.83;;;29.13;;
15673;SDS011;7937;48.090;16.212;2022-11-15T03:32:38;55.93;;;28.57;;
15673;SDS011;7937;48.090;16.212;2022-11-15T03:36:05;60.97;;;29.77;;
15673;SDS011;7937;48.090;16.212;2022-11-15T03:39:26;49.40;;;26.97;;
15673;SDS011;7937;48.090;16.212;2022-11-15T03:42:54;46.43;;;26.37;;
15673;SDS011;7937;48.090;16.212;2022-11-15T03:46:24;51.77;;;26.30;;
15673;SDS011;7937;48.090;16.212;2022-11-15T03:50:02;55.87;;;26.93;;
15673;SDS011;7937;48.090;16.212;2022-11-15T03:53:29;55.17;;;26.77;;
15673;SDS011;7937;48.090;16.212;2022-11-15T03:56:51;52.70;;;26.33;;
15673;SDS011;7937;48.090;16.212;2022-11-15T04:00:12;48.80;;;23.87;;
15673;SDS011;7937;48.090;16.212;2022-11-15T04:03:33;55.93;;;27.83;;
15673;SDS011;7937;48.090;16.212;2022-11-15T04:06:53;51.53;;;26.87;;
15673;SDS011;7937;48.090;16.212;2022-11-15T04:10:14;50.57;;;25.77;;
15673;SDS011;7937;48.090;16.212;2022-11-15T04:13:35;43.30;;;24.20;;
15673;SDS011;7937;48.090;16.212;2022-11-15T04:16:55;41.40;;;23.07;;
15673;SDS011;7937;48.090;16.212;2022-11-15T04:23:56;47.70;;;24.43;;
15673;SDS011;7937;48.090;16.212;2022-11-15T04:27:32;47.67;;;25.43;;
15673;SDS011;7937;48.090;16.212;2022-11-15T04:30:52;51.83;;;26.47;;
15673;SDS011;7937;48.090;16.212;2022-11-15T04:34:13;41.47;;;22.17;;
15673;SDS011;7937;48.090;16.212;2022-11-15T04:37:33;39.17;;;21.13;;
15673;SDS011;7937;48.090;16.212;2022-11-15T04:40:54;39.60;;;21.67;;
15673;SDS011;7937;48.090;16.212;2022-11-15T04:44:14;50.67;;;25.17;;
15673;SDS011;7937;48.090;16.212;2022-11-15T04:47:35;40.77;;;22.37;;
15673;SDS011;7937;48.090;16.212;2022-11-15T04:50:56;34.33;;;20.30;;
15673;SDS011;7937;48.090;16.212;2022-11-15T04:54:16;39.03;;;21.73;;
15673;SDS011;7937;48.090;16.212;2022-11-15T04:57:37;51.23;;;22.97;;
15673;SDS011;7937;48.090;16.212;2022-11-15T05:00:58;42.43;;;22.90;;
15673;SDS011;7937;48.090;16.212;2022-11-15T05:04:28;43.57;;;23.77;;
15673;SDS011;7937;48.090;16.212;2022-11-15T05:07:49;40.33;;;22.23;;
15673;SDS011;7937;48.090;16.212;2022-11-15T05:11:09;43.40;;;23.57;;
15673;SDS011;7937;48.090;16.212;2022-11-15T05:14:30;36.77;;;19.63;;
15673;SDS011;7937;48.090;16.212;2022-11-15T05:17:50;40.03;;;21.03;;
15673;SDS011;7937;48.090;16.212;2022-11-15T05:21:12;40.90;;;22.03;;
15673;SDS011;7937;48.090;16.212;2022-11-15T05:24:34;43.53;;;21.97;;
15673;SDS011;7937;48.090;16.212;2022-11-15T05:27:55;36.37;;;21.00;;
15673;SDS011;7937;48.090;16.212;2022-11-15T05:31:16;34.83;;;19.83;;
15673;SDS011;7937;48.090;16.212;2022-11-15T05:34:36;35.57;;;20.40;;
15673;SDS011;7937;48.090;16.212;2022-11-15T05:37:57;46.13;;;23.80;;
15673;SDS011;7937;48.090;16.212;2022-11-15T05:41:18;63.27;;;26.73;;
15673;SDS011;7937;48.090;16.212;2022-11-15T05:44:44;41.60;;;22.00;;
15673;SDS011;7937;48.090;16.212;2022-11-15T05:48:08;44.63;;;22.87;;
15673;SDS011;7937;48.090;16.212;2022-11-15T05:51:30;39.33;;;20.80;;
15673;SDS011;7937;48.090;16.212;2022-11-15T05:54:51;43.87;;;23.60;;
15673;SDS011;7937;48.090;16.212;2022-11-15T05:58:12;42.57;;;21.53;;
15673;SDS011;7937;48.090;16.212;2022-11-15T06:01:33;39.87;;;20.90;;
15673;SDS011;7937;48.090;16.212;2022-11-15T06:04:54;46.23;;;23.87;;
15673;SDS011;7937;48.090;16.212;2022-11-15T06:08:15;42.77;;;22.83;;
15673;SDS011;7937;48.090;16.212;2022-11-15T06:11:35;38.27;;;21.13;;
15673;SDS011;7937;48.090;16.212;2022-11-15T06:14:56;39.77;;;21.87;;
15673;SDS011;7937;48.090;16.212;2022-11-15T06:18:16;49.70;;;24.30;;
15673;SDS011;7937;48.090;16.212;2022-11-15T06:21:37;39.17;;;22.83;;
15673;SDS011;7937;48.090;16.212;2022-11-15T06:24:58;44.30;;;24.00;;
15673;SDS011;7937;48.090;16.212;2022-11-15T06:28:24;42.07;;;22.13;;
15673;SDS011;7937;48.090;16.212;2022-11-15T06:31:48;42.90;;;21.43;;
15673;SDS011;7937;48.090;16.212;2022-11-15T06:35:09;49.10;;;23.43;;
15673;SDS011;7937;48.090;16.212;2022-11-15T06:38:30;44.23;;;23.40;;
15673;SDS011;7937;48.090;16.212;2022-11-15T06:41:50;42.30;;;21.97;;
15673;SDS011;7937;48.090;16.212;2022-11-15T06:45:11;42.30;;;21.47;;
15673;SDS011;7937;48.090;16.212;2022-11-15T06:48:32;43.33;;;22.60;;
15673;SDS011;7937;48.090;16.212;2022-11-15T06:51:54;45.57;;;21.73;;
15673;SDS011;7937;48.090;16.212;2022-11-15T06:55:15;36.83;;;19.73;;
15673;SDS011;7937;48.090;16.212;2022-11-15T06:58:36;42.90;;;20.07;;
15673;SDS011;7937;48.090;16.212;2022-11-15T07:01:56;37.53;;;20.37;;
15673;SDS011;7937;48.090;16.212;2022-11-15T07:05:17;34.10;;;19.83;;
15673;SDS011;7937;48.090;16.212;2022-11-15T07:08:37;40.50;;;20.13;;
15673;SDS011;7937;48.090;16.212;2022-11-15T07:11:58;36.13;;;20.53;;
15673;SDS011;7937;48.090;16.212;2022-11-15T07:15:26;41.33;;;22.87;;
15673;SDS011;7937;48.090;16.212;2022-11-15T07:18:46;34.07;;;20.23;;
15673;SDS011;7937;48.090;16.212;2022-11-15T07:22:06;33.43;;;19.23;;
15673;SDS011;7937;48.090;16.212;2022-11-15T07:25:27;40.67;;;20.83;;
15673;SDS011;7937;48.090;16.212;2022-11-15T07:28:48;37.70;;;21.03;;
15673;SDS011;7937;48.090;16.212;2022-11-15T07:32:09;32.93;;;20.40;;
15673;SDS011;7937;48.090;16.212;2022-11-15T07:35:30;41.43;;;22.03;;
15673;SDS011;7937;48.090;16.212;2022-11-15T07:38:51;36.70;;;20.97;;
15673;SDS011;7937;48.090;16.212;2022-11-15T07:42:11;36.03;;;20.30;;
15673;SDS011;7937;48.090;16.212;2022-11-15T07:45:50;35.10;;;20.10;;
15673;SDS011;7937;48.090;16.212;2022-11-15T07:49:17;35.47;;;20.43;;
15673;SDS011;7937;48.090;16.212;2022-11-15T07:52:38;40.73;;;21.20;;
15673;SDS011;7937;48.090;16.212;2022-11-15T07:55:58;38.07;;;21.07;;
15673;SDS011;7937;48.090;16.212;2022-11-15T07:59:19;41.83;;;22.57;;
15673;SDS011;7937;48.090;16.212;2022-11-15T08:02:39;55.27;;;23.10;;
15673;SDS011;7937;48.090;16.212;2022-11-15T08:06:01;37.50;;;20.43;;
15673;SDS011;7937;48.090;16.212;2022-11-15T08:09:22;32.47;;;17.83;;
15673;SDS011;7937;48.090;16.212;2022-11-15T08:12:43;41.47;;;21.60;;
15673;SDS011;7937;48.090;16.212;2022-11-15T08:16:03;35.87;;;20.23;;
15673;SDS011;7937;48.090;16.212;2022-11-15T08:19:26;37.23;;;19.63;;
15673;SDS011;7937;48.090;16.212;2022-11-15T08:22:46;33.90;;;19.63;;
15673;SDS011;7937;48.090;16.212;2022-11-15T08:26:08;31.50;;;18.47;;
15673;SDS011;7937;48.090;16.212;2022-11-15T08:29:28;36.93;;;19.93;;
15673;SDS011;7937;48.090;16.212;2022-11-15T08:32:50;39.73;;;21.97;;
15673;SDS011;7937;48.090;16.212;2022-11-15T08:36:16;37.03;;;19.23;;
15673;SDS011;7937;48.090;16.212;2022-11-15T08:39:36;48.60;;;21.33;;
15673;SDS011;7937;48.090;16.212;2022-11-15T08:42:58;37.17;;;19.87;;
15673;SDS011;7937;48.090;16.212;2022-11-15T08:46:22;41.53;;;21.87;;
15673;SDS011;7937;48.090;16.212;2022-11-15T08:49:43;41.53;;;20.60;;
15673;SDS011;7937;48.090;16.212;2022-11-15T08:53:05;45.23;;;20.87;;
15673;SDS011;7937;48.090;16.212;2022-11-15T08:56:27;33.83;;;17.60;;
15673;SDS011;7937;48.090;16.212;2022-11-15T08:59:47;37.60;;;19.07;;
15673;SDS011;7937;48.090;16.212;2022-11-15T09:03:08;35.70;;;19.17;;
15673;SDS011;7937;48.090;16.212;2022-11-15T09:06:29;33.47;;;16.77;;
15673;SDS011;7937;48.090;16.212;2022-11-15T09:09:50;29.37;;;17.63;;
15673;SDS011;7937;48.090;16.212;2022-11-15T09:13:11;33.30;;;18.80;;
15673;SDS011;7937;48.090;16.212;2022-11-15T09:16:31;36.27;;;18.43;;
15673;SDS011;7937;48.090;16.212;2022-11-15T09:19:52;29.13;;;17.43;;
15673;SDS011;7937;48.090;16.212;2022-11-15T09:23:12;31.37;;;18.37;;
15673;SDS011;7937;48.090;16.212;2022-11-15T09:26:32;33.50;;;19.50;;
15673;SDS011;7937;48.090;16.212;2022-11-15T09:29:53;37.70;;;19.30;;
15673;SDS011;7937;48.090;16.212;2022-11-15T09:33:13;29.37;;;16.63;;
15673;SDS011;7937;48.090;16.212;2022-11-15T09:36:34;25.47;;;16.10;;
15673;SDS011;7937;48.090;16.212;2022-11-15T09:39:55;24.97;;;15.97;;
15673;SDS011;7937;48.090;16.212;2022-11-15T09:50:06;28.07;;;16.90;;
15673;SDS011;7937;48.090;16.212;2022-11-15T09:53:11;29.13;;;17.13;;
15673;SDS011;7937;48.090;16.212;2022-11-15T09:56:19;31.60;;;16.77;;
15673;SDS011;7937;48.090;16.212;2022-11-15T10:03:28;33.50;;;17.73;;
15673;SDS011;7937;48.090;16.212;2022-11-15T10:06:36;33.67;;;18.73;;
15673;SDS011;7937;48.090;16.212;2022-11-15T10:09:51;32.03;;;17.97;;
15673;SDS011;7937;48.090;16.212;2022-11-15T10:13:10;28.23;;;17.10;;
15673;SDS011;7937;48.090;16.212;2022-11-15T10:23:29;33.37;;;18.07;;
15673;SDS011;7937;48.090;16.212;2022-11-15T10:26:33;28.33;;;16.83;;
15673;SDS011;7937;48.090;16.212;2022-11-15T10:29:35;28.37;;;16.67;;
15673;SDS011;7937;48.090;16.212;2022-11-15T10:32:37;23.00;;;15.17;;
15673;SDS011;7937;48.090;16.212;2022-11-15T10:35:42;31.57;;;18.60;;
15673;SDS011;7937;48.090;16.212;2022-11-15T10:42:45;30.83;;;17.33;;
15673;SDS011;7937;48.090;16.212;2022-11-15T10:45:33;32.90;;;18.97;;
15673;SDS011;7937;48.090;16.212;2022-11-15T10:48:35;32.70;;;17.63;;
15673;SDS011;7937;48.090;16.212;2022-11-15T10:51:40;39.00;;;19.87;;
15673;SDS011;7937;48.090;16.212;2022-11-15T10:58:33;34.57;;;19.47;;
15673;SDS011;7937;48.090;16.212;2022-11-15T11:01:36;35.07;;;19.73;;
15673;SDS011;7937;48.090;16.212;2022-11-15T11:04:51;32.07;;;18.53;;
15673;SDS011;7937;48.090;16.212;2022-11-15T11:07:57;39.37;;;19.87;;
15673;SDS011;7937;48.090;16.212;2022-11-15T11:11:02;30.77;;;18.77;;
15673;SDS011;7937;48.090;16.212;2022-11-15T11:14:12;35.57;;;18.70;;
15673;SDS011;7937;48.090;16.212;2022-11-15T11:20:40;36.20;;;19.67;;
15673;SDS011;7937;48.090;16.212;2022-11-15T11:31:12;37.87;;;20.93;;
15673;SDS011;7937;48.090;16.212;2022-11-15T11:38:19;36.73;;;19.70;;
15673;SDS011;7937;48.090;16.212;2022-11-15T12:01:44;35.73;;;20.70;;
15673;SDS011;7937;48.090;16.212;2022-11-15T12:04:48;46.67;;;24.07;;
15673;SDS011;7937;48.090;16.212;2022-11-15T12:07:58;36.50;;;21.47;;
15673;SDS011;7937;48.090;16.212;2022-11-15T12:11:11;63.20;;;24.47;;
15673;SDS011;7937;48.090;16.212;2022-11-15T12:17:29;38.80;;;22.03;;
15673;SDS011;7937;48.090;16.212;2022-11-15T12:20:34;38.53;;;20.97;;
15673;SDS011;7937;48.090;16.212;2022-11-15T12:23:43;43.87;;;22.40;;
15673;SDS011;7937;48.090;16.212;2022-11-15T12:26:51;37.70;;;21.97;;
15673;SDS011;7937;48.090;16.212;2022-11-15T12:29:58;40.57;;;22.00;;
15673;SDS011;7937;48.090;16.212;2022-11-15T12:33:04;38.43;;;21.77;;
15673;SDS011;7937;48.090;16.212;2022-11-15T12:46:20;42.10;;;21.07;;
15673;SDS011;7937;48.090;16.212;2022-11-15T12:52:30;48.57;;;25.00;;
15673;SDS011;7937;48.090;16.212;2022-11-15T12:55:32;40.40;;;22.17;;
15673;SDS011;7937;48.090;16.212;2022-11-15T12:58:44;46.10;;;24.70;;
15673;SDS011;7937;48.090;16.212;2022-11-15T13:01:58;38.60;;;21.23;;
15673;SDS011;7937;48.090;16.212;2022-11-15T13:08:37;45.43;;;22.77;;
15673;SDS011;7937;48.090;16.212;2022-11-15T13:11:42;33.07;;;20.83;;
15673;SDS011;7937;48.090;16.212;2022-11-15T13:14:54;81.57;;;25.13;;
15673;SDS011;7937;48.090;16.212;2022-11-15T13:17:58;42.87;;;24.37;;
15673;SDS011;7937;48.090;16.212;2022-11-15T13:21:01;91.00;;;29.63;;
15673;SDS011;7937;48.090;16.212;2022-11-15T13:24:24;44.90;;;24.20;;
15673;SDS011;7937;48.090;16.212;2022-11-15T13:27:27;67.77;;;28.37;;
15673;SDS011;7937;48.090;16.212;2022-11-15T13:30:30;47.67;;;24.83;;
15673;SDS011;7937;48.090;16.212;2022-11-15T13:33:33;40.80;;;23.30;;
15673;SDS011;7937;48.090;16.212;2022-11-15T13:36:38;44.07;;;24.17;;
15673;SDS011;7937;48.090;16.212;2022-11-15T13:39:40;48.73;;;26.03;;
15673;SDS011;7937;48.090;16.212;2022-11-15T13:42:42;42.53;;;22.93;;
15673;SDS011;7937;48.090;16.212;2022-11-15T13:49:14;40.77;;;23.03;;
15673;SDS011;7937;48.090;16.212;2022-11-15T13:52:16;46.87;;;24.07;;
15673;SDS011;7937;48.090;16.212;2022-11-15T13:55:19;47.67;;;24.67;;
15673;SDS011;7937;48.090;16.212;2022-11-15T13:58:24;47.43;;;24.50;;
15673;SDS011;7937;48.090;16.212;2022-11-15T14:01:27;41.63;;;22.17;;
15673;SDS011;7937;48.090;16.212;2022-11-15T14:04:32;33.90;;;20.00;;
15673;SDS011;7937;48.090;16.212;2022-11-15T14:07:44;37.87;;;21.23;;
15673;SDS011;7937;48.090;16.212;2022-11-15T14:11:18;36.83;;;19.73;;
15673;SDS011;7937;48.090;16.212;2022-11-15T14:14:22;43.57;;;23.10;;
15673;SDS011;7937;48.090;16.212;2022-11-15T14:20:34;45.90;;;24.90;;
15673;SDS011;7937;48.090;16.212;2022-11-15T14:23:38;45.10;;;23.73;;
15673;SDS011;7937;48.090;16.212;2022-11-15T14:26:41;50.37;;;25.50;;
15673;SDS011;7937;48.090;16.212;2022-11-15T14:29:43;43.50;;;23.73;;
15673;SDS011;7937;48.090;16.212;2022-11-15T14:32:47;42.70;;;23.33;;
15673;SDS011;7937;48.090;16.212;2022-11-15T14:35:51;40.90;;;22.30;;
15673;SDS011;7937;48.090;16.212;2022-11-15T14:38:54;39.87;;;21.67;;
15673;SDS011;7937;48.090;16.212;2022-11-15T14:41:56;38.77;;;21.33;;
15673;SDS011;7937;48.090;16.212;2022-11-15T14:44:58;44.30;;;23.50;;
15673;SDS011;7937;48.090;16.212;2022-11-15T14:48:00;35.63;;;20.70;;
15673;SDS011;7937;48.090;16.212;2022-11-15T14:51:02;49.57;;;26.10;;
15673;SDS011;7937;48.090;16.212;2022-11-15T14:54:05;41.43;;;22.53;;
15673;SDS011;7937;48.090;16.212;2022-11-15T14:57:07;42.70;;;24.23;;
15673;SDS011;7937;48.090;16.212;2022-11-15T15:00:09;38.63;;;21.83;;
15673;SDS011;7937;48.090;16.212;2022-11-15T15:03:14;41.40;;;21.90;;
15673;SDS011;7937;48.090;16.212;2022-11-15T15:06:16;46.90;;;24.70;;
15673;SDS011;7937;48.090;16.212;2022-11-15T15:09:19;48.07;;;26.50;;
15673;SDS011;7937;48.090;16.212;2022-11-15T15:12:22;54.33;;;28.90;;
15673;SDS011;7937;48.090;16.212;2022-11-15T15:15:26;49.23;;;25.73;;
15673;SDS011;7937;48.090;16.212;2022-11-15T15:18:33;67.13;;;31.63;;
15673;SDS011;7937;48.090;16.212;2022-11-15T15:21:35;56.87;;;28.13;;
15673;SDS011;7937;48.090;16.212;2022-11-15T15:24:38;70.27;;;33.57;;
15673;SDS011;7937;48.090;16.212;2022-11-15T15:27:40;68.90;;;36.03;;
15673;SDS011;7937;48.090;16.212;2022-11-15T15:30:42;66.50;;;34.50;;
15673;SDS011;7937;48.090;16.212;2022-11-15T15:33:44;70.13;;;36.77;;
15673;SDS011;7937;48.090;16.212;2022-11-15T15:36:46;62.63;;;35.07;;
15673;SDS011;7937;48.090;16.212;2022-11-15T15:39:49;62.33;;;33.40;;
15673;SDS011;7937;48.090;16.212;2022-11-15T15:42:53;58.07;;;31.53;;
15673;SDS011;7937;48.090;16.212;2022-11-15T15:45:55;62.50;;;33.70;;
15673;SDS011;7937;48.090;16.212;2022-11-15T15:48:57;72.07;;;38.43;;
15673;SDS011;7937;48.090;16.212;2022-11-15T15:51:59;69.83;;;35.37;;
15673;SDS011;7937;48.090;16.212;2022-11-15T15:55:01;72.20;;;38.27;;
15673;SDS011;7937;48.090;16.212;2022-11-15T15:58:03;61.00;;;32.90;;
15673;SDS011;7937;48.090;16.212;2022-11-15T16:01:06;65.50;;;34.80;;
15673;SDS011;7937;48.090;16.212;2022-11-15T16:04:08;59.40;;;32.40;;
15673;SDS011;7937;48.090;16.212;2022-11-15T16:07:17;70.63;;;37.27;;
15673;SDS011;7937;48.090;16.212;2022-11-15T16:10:26;73.60;;;39.07;;
15673;SDS011;7937;48.090;16.212;2022-11-15T16:13:33;75.47;;;38.17;;
15673;SDS011;7937;48.090;16.212;2022-11-15T16:16:35;70.67;;;37.23;;
15673;SDS011;7937;48.090;16.212;2022-11-15T16:19:38;62.57;;;34.33;;
15673;SDS011;7937;48.090;16.212;2022-11-15T16:22:40;73.60;;;38.23;;
15673;SDS011;7937;48.090;16.212;2022-11-15T16:25:52;73.50;;;37.80;;
15673;SDS011;7937;48.090;16.212;2022-11-15T16:28:59;64.73;;;37.50;;
15673;SDS011;7937;48.090;16.212;2022-11-15T16:32:01;75.93;;;39.27;;
15673;SDS011;7937;48.090;16.212;2022-11-15T16:35:03;66.37;;;35.53;;
15673;SDS011;7937;48.090;16.212;2022-11-15T16:38:07;62.80;;;34.87;;
15673;SDS011;7937;48.090;16.212;2022-11-15T16:41:16;69.37;;;37.13;;
15673;SDS011;7937;48.090;16.212;2022-11-15T16:44:19;63.23;;;34.00;;
15673;SDS011;7937;48.090;16.212;2022-11-15T16:47:23;63.17;;;33.47;;
15673;SDS011;7937;48.090;16.212;2022-11-15T16:50:28;62.67;;;33.73;;
15673;SDS011;7937;48.090;16.212;2022-11-15T16:53:31;63.10;;;32.30;;
15673;SDS011;7937;48.090;16.212;2022-11-15T16:56:33;62.50;;;33.80;;
15673;SDS011;7937;48.090;16.212;2022-11-15T16:59:36;60.10;;;30.47;;
15673;SDS011;7937;48.090;16.212;2022-11-15T17:02:39;65.73;;;35.27;;
15673;SDS011;7937;48.090;16.212;2022-11-15T17:05:41;51.70;;;29.77;;
15673;SDS011;7937;48.090;16.212;2022-11-15T17:08:43;53.40;;;29.13;;
15673;SDS011;7937;48.090;16.212;2022-11-15T17:11:47;52.43;;;29.43;;
15673;SDS011;7937;48.090;16.212;2022-11-15T17:14:49;59.03;;;32.50;;
15673;SDS011;7937;48.090;16.212;2022-11-15T17:17:52;53.33;;;30.20;;
15673;SDS011;7937;48.090;16.212;2022-11-15T17:20:55;58.73;;;30.57;;
15673;SDS011;7937;48.090;16.212;2022-11-15T17:23:57;51.80;;;29.83;;
15673;SDS011;7937;48.090;16.212;2022-11-15T17:27:00;50.70;;;27.80;;
15673;SDS011;7937;48.090;16.212;2022-11-15T17:30:03;45.37;;;24.70;;
15673;SDS011;7937;48.090;16.212;2022-11-15T17:33:06;47.03;;;26.57;;
15673;SDS011;7937;48.090;16.212;2022-11-15T17:36:10;48.20;;;26.37;;
15673;SDS011;7937;48.090;16.212;2022-11-15T17:39:13;42.77;;;25.93;;
15673;SDS011;7937;48.090;16.212;2022-11-15T17:42:15;37.13;;;23.07;;
15673;SDS011;7937;48.090;16.212;2022-11-15T17:45:17;38.27;;;22.57;;
15673;SDS011;7937;48.090;16.212;2022-11-15T17:48:20;48.53;;;28.00;;
15673;SDS011;7937;48.090;16.212;2022-11-15T17:51:23;49.67;;;28.70;;
15673;SDS011;7937;48.090;16.212;2022-11-15T17:54:26;51.93;;;29.17;;
15673;SDS011;7937;48.090;16.212;2022-11-15T17:57:32;46.43;;;26.73;;
15673;SDS011;7937;48.090;16.212;2022-11-15T18:00:37;59.50;;;31.67;;
15673;SDS011;7937;48.090;16.212;2022-11-15T18:03:39;45.20;;;27.97;;
15673;SDS011;7937;48.090;16.212;2022-11-15T18:06:42;42.70;;;25.27;;
15673;SDS011;7937;48.090;16.212;2022-11-15T18:09:44;48.90;;;26.97;;
15673;SDS011;7937;48.090;16.212;2022-11-15T18:12:47;46.93;;;26.23;;
15673;SDS011;7937;48.090;16.212;2022-11-15T18:15:53;51.77;;;28.63;;
15673;SDS011;7937;48.090;16.212;2022-11-15T18:18:58;47.93;;;26.93;;
15673;SDS011;7937;48.090;16.212;2022-11-15T18:22:02;50.90;;;27.97;;
15673;SDS011;7937;48.090;16.212;2022-11-15T18:25:06;48.27;;;27.37;;
15673;SDS011;7937;48.090;16.212;2022-11-15T18:28:09;42.23;;;25.10;;
15673;SDS011;7937;48.090;16.212;2022-11-15T18:31:13;45.30;;;27.50;;
15673;SDS011;7937;48.090;16.212;2022-11-15T18:34:24;51.83;;;28.83;;
15673;SDS011;7937;48.090;16.212;2022-11-15T18:37:33;45.67;;;25.77;;
15673;SDS011;7937;48.090;16.212;2022-11-15T18:40:36;56.67;;;29.33;;
15673;SDS011;7937;48.090;16.212;2022-11-15T18:43:38;46.67;;;27.47;;
15673;SDS011;7937;48.090;16.212;2022-11-15T18:46:43;48.70;;;26.80;;
15673;SDS011;7937;48.090;16.212;2022-11-15T18:49:52;42.50;;;24.17;;
15673;SDS011;7937;48.090;16.212;2022-11-15T18:52:54;45.50;;;24.50;;
15673;SDS011;7937;48.090;16.212;2022-11-15T18:56:01;42.57;;;25.43;;
15673;SDS011;7937;48.090;16.212;2022-11-15T18:59:06;46.93;;;26.13;;
15673;SDS011;7937;48.090;16.212;2022-11-15T19:02:10;46.07;;;25.07;;
15673;SDS011;7937;48.090;16.212;2022-11-15T19:05:13;48.07;;;25.27;;
15673;SDS011;7937;48.090;16.212;2022-11-15T19:08:19;42.73;;;25.37;;
15673;SDS011;7937;48.090;16.212;2022-11-15T19:11:26;49.07;;;26.77;;
15673;SDS011;7937;48.090;16.212;2022-11-15T19:14:33;38.37;;;22.73;;
15673;SDS011;7937;48.090;16.212;2022-11-15T19:17:35;45.23;;;23.63;;
15673;SDS011;7937;48.090;16.212;2022-11-15T19:20:38;38.43;;;22.83;;
15673;SDS011;7937;48.090;16.212;2022-11-15T19:23:42;36.23;;;21.40;;
15673;SDS011;7937;48.090;16.212;2022-11-15T19:26:44;36.10;;;21.60;;
15673;SDS011;7937;48.090;16.212;2022-11-15T19:29:47;36.90;;;20.93;;
15673;SDS011;7937;48.090;16.212;2022-11-15T19:32:50;40.27;;;21.63;;
15673;SDS011;7937;48.090;16.212;2022-11-15T19:36:04;36.40;;;21.27;;
15673;SDS011;7937;48.090;16.212;2022-11-15T19:39:09;33.77;;;18.37;;
15673;SDS011;7937;48.090;16.212;2022-11-15T19:42:13;31.60;;;18.50;;
15673;SDS011;7937;48.090;16.212;2022-11-15T19:45:16;31.77;;;19.17;;
15673;SDS011;7937;48.090;16.212;2022-11-15T19:48:21;34.30;;;19.50;;
15673;SDS011;7937;48.090;16.212;2022-11-15T19:51:25;47.13;;;24.87;;
15673;SDS011;7937;48.090;16.212;2022-11-15T19:54:29;45.30;;;27.17;;
15673;SDS011;7937;48.090;16.212;2022-11-15T19:57:33;40.63;;;23.07;;
15673;SDS011;7937;48.090;16.212;2022-11-15T20:00:36;41.97;;;24.43;;
15673;SDS011;7937;48.090;16.212;2022-11-15T20:03:39;51.13;;;27.70;;
15673;SDS011;7937;48.090;16.212;2022-11-15T20:06:42;40.43;;;23.47;;
15673;SDS011;7937;48.090;16.212;2022-11-15T20:09:44;41.00;;;23.07;;
15673;SDS011;7937;48.090;16.212;2022-11-15T20:12:47;46.23;;;24.87;;
15673;SDS011;7937;48.090;16.212;2022-11-15T20:15:49;38.07;;;22.27;;
15673;SDS011;7937;48.090;16.212;2022-11-15T20:18:54;35.80;;;20.87;;
15673;SDS011;7937;48.090;16.212;2022-11-15T20:21:57;43.17;;;24.60;;
15673;SDS011;7937;48.090;16.212;2022-11-15T20:25:00;43.50;;;23.93;;
15673;SDS011;7937;48.090;16.212;2022-11-15T20:28:03;47.33;;;25.00;;
15673;SDS011;7937;48.090;16.212;2022-11-15T20:31:09;42.33;;;22.90;;
15673;SDS011;7937;48.090;16.212;2022-11-15T20:34:12;42.00;;;23.30;;
15673;SDS011;7937;48.090;16.212;2022-11-15T20:37:15;37.20;;;22.53;;
15673;SDS011;7937;48.090;16.212;2022-11-15T20:40:17;41.07;;;22.03;;
15673;SDS011;7937;48.090;16.212;2022-11-15T20:43:20;39.83;;;23.00;;
15673;SDS011;7937;48.090;16.212;2022-11-15T20:46:23;31.33;;;18.70;;